sensor_id;sensor_type;location;lat;lon;timestamp;pressure;altitude;pressure_sealevel;temperature;humidity
12868;BME280;33517;49.866;8.320;2023-03-18T00:00:46;100000.53;;;11.67;73.04
12868;BME280;33517;49.866;8.320;2023-03-18T00:03:38;100009.78;;;11.63;73.57
12868;BME280;33517;49.866;8.320;2023-03-18T00:06:35;100011.03;;;11.53;73.75
12868;BME280;33517;49.866;8.320;2023-03-18T00:09:27;100014.69;;;11.52;74.29
12868;BME280;33517;49.866;8.320;2023-03-18T00:12:19;100016.22;;;11.46;74.68
12868;BME280;33517;49.866;8.320;2023-03-18T00:15:13;100019.44;;;11.34;74.88
12868;BME280;33517;49.866;8.320;2023-03-18T00:18:07;100019.44;;;11.34;75.05
12868;BME280;33517;49.866;8.320;2023-03-18T00:20:59;100011.03;;;11.38;75.58
12868;BME280;33517;49.866;8.320;2023-03-18T00:23:51;100015.72;;;11.43;75.60
12868;BME280;33517;49.866;8.320;2023-03-18T00:26:46;100016.94;;;11.40;75.42
12868;BME280;33517;49.866;8.320;2023-03-18T00:29:38;100024.66;;;11.42;75.43
12868;BME280;33517;49.866;8.320;2023-03-18T00:32:31;100021.38;;;11.40;75.72
12868;BME280;33517;49.866;8.320;2023-03-18T00:35:26;100024.06;;;11.32;76.26
12868;BME280;33517;49.866;8.320;2023-03-18T00:38:20;100030.69;;;11.28;77.39
12868;BME280;33517;49.866;8.320;2023-03-18T00:41:12;100020.53;;;11.25;77.28
12868;BME280;33517;49.866;8.320;2023-03-18T00:44:05;100025.81;;;11.25;76.79
12868;BME280;33517;49.866;8.320;2023-03-18T00:46:57;100033.69;;;11.25;77.37
12868;BME280;33517;49.866;8.320;2023-03-18T00:49:49;100026.78;;;11.24;77.82
12868;BME280;33517;49.866;8.320;2023-03-18T00:52:42;100030.44;;;11.23;77.91
12868;BME280;33517;49.866;8.320;2023-03-18T00:55:34;100038.38;;;11.00;81.32
12868;BME280;33517;49.866;8.320;2023-03-18T00:58:26;100035.44;;;10.72;84.26
12868;BME280;33517;49.866;8.320;2023-03-18T01:01:18;100043.50;;;10.71;83.18
12868;BME280;33517;49.866;8.320;2023-03-18T01:04:11;100037.13;;;10.88;82.12
12868;BME280;33517;49.866;8.320;2023-03-18T01:07:02;100043.31;;;10.95;82.45
12868;BME280;33517;49.866;8.320;2023-03-18T01:09:56;100040.16;;;10.99;81.23
12868;BME280;33517;49.866;8.320;2023-03-18T01:12:48;100036.94;;;10.89;81.90
12868;BME280;33517;49.866;8.320;2023-03-18T01:15:40;100036.25;;;10.95;81.82
12868;BME280;33517;49.866;8.320;2023-03-18T01:18:32;100037.41;;;10.93;81.44
12868;BME280;33517;49.866;8.320;2023-03-18T01:21:26;100033.63;;;10.95;81.99
12868;BME280;33517;49.866;8.320;2023-03-18T01:24:17;100030.34;;;10.93;82.82
12868;BME280;33517;49.866;8.320;2023-03-18T01:27:11;100029.88;;;10.90;82.38
12868;BME280;33517;49.866;8.320;2023-03-18T01:30:05;100032.16;;;10.93;82.22
12868;BME280;33517;49.866;8.320;2023-03-18T01:32:58;100027.53;;;10.95;82.59
12868;BME280;33517;49.866;8.320;2023-03-18T01:35:53;100028.63;;;11.00;82.69
12868;BME280;33517;49.866;8.320;2023-03-18T01:38:45;100022.56;;;11.00;82.15
12868;BME280;33517;49.866;8.320;2023-03-18T01:41:38;100026.81;;;11.01;82.33
12868;BME280;33517;49.866;8.320;2023-03-18T01:44:31;100030.94;;;11.03;82.69
12868;BME280;33517;49.866;8.320;2023-03-18T01:47:23;100013.19;;;10.97;82.43
12868;BME280;33517;49.866;8.320;2023-03-18T01:50:18;100014.22;;;10.96;82.45
12868;BME280;33517;49.866;8.320;2023-03-18T01:53:16;100011.41;;;10.98;83.01
12868;BME280;33517;49.866;8.320;2023-03-18T01:56:10;100011.41;;;10.98;83.33
12868;BME280;33517;49.866;8.320;2023-03-18T01:59:04;100021.56;;;11.01;83.33
12868;BME280;33517;49.866;8.320;2023-03-18T02:02:02;100023.91;;;10.96;82.83
12868;BME280;33517;49.866;8.320;2023-03-18T02:04:59;100019.63;;;10.95;82.96
12868;BME280;33517;49.866;8.320;2023-03-18T02:07:52;100024.09;;;10.94;83.11
12868;BME280;33517;49.866;8.320;2023-03-18T02:10:44;100011.44;;;10.90;83.33
12868;BME280;33517;49.866;8.320;2023-03-18T02:13:38;100008.41;;;10.78;83.55
12868;BME280;33517;49.866;8.320;2023-03-18T02:16:34;100008.59;;;10.77;84.14
12868;BME280;33517;49.866;8.320;2023-03-18T02:22:48;100015.66;;;10.76;84.63
12868;BME280;33517;49.866;8.320;2023-03-18T02:25:48;100014.69;;;10.77;84.21
12868;BME280;33517;49.866;8.320;2023-03-18T02:28:44;100016.59;;;10.83;84.45
12868;BME280;33517;49.866;8.320;2023-03-18T02:31:37;100026.78;;;10.86;84.29
12868;BME280;33517;49.866;8.320;2023-03-18T02:34:32;100039.72;;;10.73;86.64
12868;BME280;33517;49.866;8.320;2023-03-18T02:37:25;100029.47;;;10.56;88.02
12868;BME280;33517;49.866;8.320;2023-03-18T02:40:20;100023.78;;;10.67;86.46
12868;BME280;33517;49.866;8.320;2023-03-18T02:43:19;100023.38;;;10.78;85.85
12868;BME280;33517;49.866;8.320;2023-03-18T02:46:19;100021.94;;;10.75;86.04
12868;BME280;33517;49.866;8.320;2023-03-18T02:49:16;100017.94;;;10.79;85.61
12868;BME280;33517;49.866;8.320;2023-03-18T02:52:08;100017.94;;;10.79;86.25
12868;BME280;33517;49.866;8.320;2023-03-18T02:55:00;100024.50;;;10.83;85.98
12868;BME280;33517;49.866;8.320;2023-03-18T02:57:52;100040.81;;;10.79;85.94
12868;BME280;33517;49.866;8.320;2023-03-18T03:00:44;100051.16;;;10.80;85.81
12868;BME280;33517;49.866;8.320;2023-03-18T03:03:38;100049.41;;;10.73;85.87
12868;BME280;33517;49.866;8.320;2023-03-18T03:06:30;100049.06;;;10.76;86.17
12868;BME280;33517;49.866;8.320;2023-03-18T03:09:22;100046.00;;;10.64;87.07
12868;BME280;33517;49.866;8.320;2023-03-18T03:12:14;100049.13;;;10.68;86.56
12868;BME280;33517;49.866;8.320;2023-03-18T03:15:07;100044.97;;;10.73;86.55
12868;BME280;33517;49.866;8.320;2023-03-18T03:17:59;100048.25;;;10.75;86.83
12868;BME280;33517;49.866;8.320;2023-03-18T03:20:52;100050.72;;;10.77;86.65
12868;BME280;33517;49.866;8.320;2023-03-18T03:23:45;100044.09;;;10.81;86.02
12868;BME280;33517;49.866;8.320;2023-03-18T03:26:38;100044.91;;;10.81;85.75
12868;BME280;33517;49.866;8.320;2023-03-18T03:29:29;100041.81;;;10.78;85.94
12868;BME280;33517;49.866;8.320;2023-03-18T03:32:21;100052.03;;;10.73;86.14
12868;BME280;33517;49.866;8.320;2023-03-18T03:35:15;100060.16;;;10.63;87.05
12868;BME280;33517;49.866;8.320;2023-03-18T03:38:09;100052.28;;;10.63;86.54
12868;BME280;33517;49.866;8.320;2023-03-18T03:41:02;100060.16;;;10.63;86.37
12868;BME280;33517;49.866;8.320;2023-03-18T03:43:54;100057.94;;;10.52;86.68
12868;BME280;33517;49.866;8.320;2023-03-18T03:46:46;100060.72;;;10.51;86.85
12868;BME280;33517;49.866;8.320;2023-03-18T03:49:38;100059.66;;;10.37;87.60
12868;BME280;33517;49.866;8.320;2023-03-18T03:52:31;100059.50;;;10.39;87.65
12868;BME280;33517;49.866;8.320;2023-03-18T03:55:25;100060.78;;;10.43;87.48
12868;BME280;33517;49.866;8.320;2023-03-18T03:58:17;100053.88;;;10.42;87.79
12868;BME280;33517;49.866;8.320;2023-03-18T04:01:09;100058.88;;;10.29;87.06
12868;BME280;33517;49.866;8.320;2023-03-18T04:04:01;100061.06;;;10.09;87.10
12868;BME280;33517;49.866;8.320;2023-03-18T04:06:53;100058.63;;;9.99;87.90
12868;BME280;33517;49.866;8.320;2023-03-18T04:09:45;100066.34;;;10.01;87.78
12868;BME280;33517;49.866;8.320;2023-03-18T04:12:38;100068.81;;;10.02;87.56
12868;BME280;33517;49.866;8.320;2023-03-18T04:15:31;100068.16;;;10.00;87.24
12868;BME280;33517;49.866;8.320;2023-03-18T04:18:23;100065.53;;;10.00;87.95
12868;BME280;33517;49.866;8.320;2023-03-18T04:21:15;100068.38;;;9.91;87.70
12868;BME280;33517;49.866;8.320;2023-03-18T04:24:07;100064.97;;;9.66;86.87
12868;BME280;33517;49.866;8.320;2023-03-18T04:27:00;100063.88;;;9.45;87.00
12868;BME280;33517;49.866;8.320;2023-03-18T04:29:53;100065.84;;;9.26;88.09
12868;BME280;33517;49.866;8.320;2023-03-18T04:32:45;100057.97;;;9.10;87.48
12868;BME280;33517;49.866;8.320;2023-03-18T04:35:37;100060.94;;;8.99;88.07
12868;BME280;33517;49.866;8.320;2023-03-18T04:38:29;100063.88;;;8.80;88.06
12868;BME280;33517;49.866;8.320;2023-03-18T04:41:21;100070.75;;;8.81;88.83
12868;BME280;33517;49.866;8.320;2023-03-18T04:44:13;100081.25;;;8.89;89.89
12868;BME280;33517;49.866;8.320;2023-03-18T04:47:08;100076.66;;;9.07;89.75
12868;BME280;33517;49.866;8.320;2023-03-18T04:50:00;100078.81;;;9.28;90.01
12868;BME280;33517;49.866;8.320;2023-03-18T04:52:54;100073.72;;;9.43;88.96
12868;BME280;33517;49.866;8.320;2023-03-18T04:55:47;100079.94;;;9.58;88.71
12868;BME280;33517;49.866;8.320;2023-03-18T04:58:39;100081.59;;;9.59;88.29
12868;BME280;33517;49.866;8.320;2023-03-18T05:01:31;100088.28;;;9.61;88.59
12868;BME280;33517;49.866;8.320;2023-03-18T05:04:25;100084.81;;;9.69;88.91
12868;BME280;33517;49.866;8.320;2023-03-18T05:07:16;100084.81;;;9.69;89.33
12868;BME280;33517;49.866;8.320;2023-03-18T05:10:09;100085.00;;;9.67;89.24
12868;BME280;33517;49.866;8.320;2023-03-18T05:13:02;100084.00;;;9.76;89.47
12868;BME280;33517;49.866;8.320;2023-03-18T05:15:54;100080.03;;;9.80;89.03
12868;BME280;33517;49.866;8.320;2023-03-18T05:18:45;100085.63;;;9.85;89.29
12868;BME280;33517;49.866;8.320;2023-03-18T05:21:39;100079.72;;;9.83;88.91
12868;BME280;33517;49.866;8.320;2023-03-18T05:24:31;100084.31;;;9.81;89.48
12868;BME280;33517;49.866;8.320;2023-03-18T05:27:23;100076.75;;;9.86;89.36
12868;BME280;33517;49.866;8.320;2023-03-18T05:30:17;100077.56;;;9.95;88.75
12868;BME280;33517;49.866;8.320;2023-03-18T05:33:09;100074.06;;;10.02;88.21
12868;BME280;33517;49.866;8.320;2023-03-18T05:36:01;100075.88;;;10.02;88.78
12868;BME280;33517;49.866;8.320;2023-03-18T05:38:54;100076.19;;;10.07;88.28
12868;BME280;33517;49.866;8.320;2023-03-18T05:41:46;100080.63;;;10.14;87.38
12868;BME280;33517;49.866;8.320;2023-03-18T05:44:38;100081.13;;;10.18;87.56
12868;BME280;33517;49.866;8.320;2023-03-18T05:47:30;100083.09;;;10.16;87.36
12868;BME280;33517;49.866;8.320;2023-03-18T05:50:27;100085.38;;;10.03;86.79
12868;BME280;33517;49.866;8.320;2023-03-18T05:53:20;100093.81;;;9.98;87.27
12868;BME280;33517;49.866;8.320;2023-03-18T05:56:14;100094.47;;;9.92;87.07
12868;BME280;33517;49.866;8.320;2023-03-18T05:59:08;100090.53;;;9.88;87.63
12868;BME280;33517;49.866;8.320;2023-03-18T06:02:00;100093.50;;;9.85;88.17
12868;BME280;33517;49.866;8.320;2023-03-18T06:04:52;100090.38;;;9.90;88.35
12868;BME280;33517;49.866;8.320;2023-03-18T06:07:44;100092.50;;;9.94;88.64
12868;BME280;33517;49.866;8.320;2023-03-18T06:10:36;100099.06;;;9.98;87.97
12868;BME280;33517;49.866;8.320;2023-03-18T06:13:29;100106.94;;;10.06;88.16
12868;BME280;33517;49.866;8.320;2023-03-18T06:16:21;100097.72;;;10.10;87.82
12868;BME280;33517;49.866;8.320;2023-03-18T06:19:14;100098.03;;;10.15;87.60
12868;BME280;33517;49.866;8.320;2023-03-18T06:22:06;100107.25;;;10.19;87.81
12868;BME280;33517;49.866;8.320;2023-03-18T06:24:58;100104.94;;;10.16;87.35
12868;BME280;33517;49.866;8.320;2023-03-18T06:27:49;100106.91;;;10.14;86.79
12868;BME280;33517;49.866;8.320;2023-03-18T06:30:43;100111.00;;;10.09;86.55
12868;BME280;33517;49.866;8.320;2023-03-18T06:33:35;100122.06;;;10.51;85.38
12868;BME280;33517;49.866;8.320;2023-03-18T06:36:27;100112.03;;;12.91;79.12
12868;BME280;33517;49.866;8.320;2023-03-18T06:39:19;100113.78;;;14.77;72.95
12868;BME280;33517;49.866;8.320;2023-03-18T06:42:11;100111.66;;;15.79;69.71
12868;BME280;33517;49.866;8.320;2023-03-18T06:45:04;100124.78;;;14.27;72.16
12868;BME280;33517;49.866;8.320;2023-03-18T06:47:58;100128.69;;;12.56;78.09
12868;BME280;33517;49.866;8.320;2023-03-18T06:50:51;100134.47;;;12.80;78.99
12868;BME280;33517;49.866;8.320;2023-03-18T06:53:43;100122.66;;;15.24;72.34
12868;BME280;33517;49.866;8.320;2023-03-18T06:56:36;100120.50;;;17.32;66.02
12868;BME280;33517;49.866;8.320;2023-03-18T06:59:29;100127.25;;;18.63;62.62
12868;BME280;33517;49.866;8.320;2023-03-18T07:02:21;100131.41;;;20.40;59.09
12868;BME280;33517;49.866;8.320;2023-03-18T07:05:16;100128.94;;;21.63;56.35
12868;BME280;33517;49.866;8.320;2023-03-18T07:08:08;100130.78;;;22.72;53.86
12868;BME280;33517;49.866;8.320;2023-03-18T07:11:01;100143.28;;;23.68;52.18
12868;BME280;33517;49.866;8.320;2023-03-18T07:13:53;100152.50;;;23.77;51.42
12868;BME280;33517;49.866;8.320;2023-03-18T07:16:45;100158.38;;;24.47;50.01
12868;BME280;33517;49.866;8.320;2023-03-18T07:19:37;100153.22;;;24.46;50.39
12868;BME280;33517;49.866;8.320;2023-03-18T07:22:30;100161.50;;;24.81;49.26
12868;BME280;33517;49.866;8.320;2023-03-18T07:25:22;100161.38;;;25.63;47.27
12868;BME280;33517;49.866;8.320;2023-03-18T07:28:14;100161.88;;;26.30;46.16
12868;BME280;33517;49.866;8.320;2023-03-18T07:31:06;100164.72;;;26.64;45.62
12868;BME280;33517;49.866;8.320;2023-03-18T07:33:58;100159.34;;;27.23;44.16
12868;BME280;33517;49.866;8.320;2023-03-18T07:36:50;100171.44;;;27.30;43.20
12868;BME280;33517;49.866;8.320;2023-03-18T07:39:43;100174.09;;;28.08;41.95
12868;BME280;33517;49.866;8.320;2023-03-18T07:42:35;100163.22;;;28.37;41.85
12868;BME280;33517;49.866;8.320;2023-03-18T07:45:27;100158.53;;;28.71;40.63
12868;BME280;33517;49.866;8.320;2023-03-18T07:48:19;100165.72;;;25.49;44.52
12868;BME280;33517;49.866;8.320;2023-03-18T07:51:11;100165.75;;;22.22;49.09
12868;BME280;33517;49.866;8.320;2023-03-18T07:54:04;100170.25;;;23.46;47.45
12868;BME280;33517;49.866;8.320;2023-03-18T07:56:58;100166.81;;;25.53;43.71
12868;BME280;33517;49.866;8.320;2023-03-18T07:59:50;100153.75;;;24.38;44.01
12868;BME280;33517;49.866;8.320;2023-03-18T08:02:42;100155.50;;;23.01;46.57
12868;BME280;33517;49.866;8.320;2023-03-18T08:05:34;100160.16;;;21.57;48.12
12868;BME280;33517;49.866;8.320;2023-03-18T08:08:26;100162.66;;;23.70;45.34
12868;BME280;33517;49.866;8.320;2023-03-18T08:11:19;100157.16;;;26.76;40.76
12868;BME280;33517;49.866;8.320;2023-03-18T08:14:12;100165.09;;;27.11;39.52
12868;BME280;33517;49.866;8.320;2023-03-18T08:17:04;100158.25;;;28.72;37.67
12868;BME280;33517;49.866;8.320;2023-03-18T08:19:56;100162.38;;;30.27;36.16
12868;BME280;33517;49.866;8.320;2023-03-18T08:22:48;100177.50;;;31.23;34.66
12868;BME280;33517;49.866;8.320;2023-03-18T08:25:40;100173.03;;;32.46;33.93
12868;BME280;33517;49.866;8.320;2023-03-18T08:28:32;100171.63;;;30.53;35.38
12868;BME280;33517;49.866;8.320;2023-03-18T08:31:25;100168.66;;;26.97;38.28
12868;BME280;33517;49.866;8.320;2023-03-18T08:34:17;100163.19;;;24.45;42.25
12868;BME280;33517;49.866;8.320;2023-03-18T08:37:09;100166.66;;;27.95;37.85
12868;BME280;33517;49.866;8.320;2023-03-18T08:40:01;100170.91;;;30.61;34.51
12868;BME280;33517;49.866;8.320;2023-03-18T08:42:54;100172.81;;;30.61;31.96
12868;BME280;33517;49.866;8.320;2023-03-18T08:45:49;100182.06;;;31.36;30.45
12868;BME280;33517;49.866;8.320;2023-03-18T08:48:43;100167.81;;;32.28;29.56
12868;BME280;33517;49.866;8.320;2023-03-18T08:51:35;100168.78;;;31.48;30.26
12868;BME280;33517;49.866;8.320;2023-03-18T08:54:28;100172.06;;;29.13;29.88
12868;BME280;33517;49.866;8.320;2023-03-18T08:57:19;100173.47;;;27.05;30.25
12868;BME280;33517;49.866;8.320;2023-03-18T09:00:12;100174.47;;;26.65;31.50
12868;BME280;33517;49.866;8.320;2023-03-18T09:03:05;100175.50;;;28.29;27.46
12868;BME280;33517;49.866;8.320;2023-03-18T09:05:58;100173.09;;;29.17;29.31
12868;BME280;33517;49.866;8.320;2023-03-18T09:08:50;100170.63;;;28.78;27.74
12868;BME280;33517;49.866;8.320;2023-03-18T09:11:42;100164.16;;;30.18;27.46
12868;BME280;33517;49.866;8.320;2023-03-18T09:14:35;100174.19;;;28.97;25.95
12868;BME280;33517;49.866;8.320;2023-03-18T09:17:28;100170.34;;;28.98;27.41
12868;BME280;33517;49.866;8.320;2023-03-18T09:20:20;100168.34;;;30.24;27.27
12868;BME280;33517;49.866;8.320;2023-03-18T09:23:14;100180.59;;;32.19;24.76
12868;BME280;33517;49.866;8.320;2023-03-18T09:26:07;100169.53;;;29.72;24.25
12868;BME280;33517;49.866;8.320;2023-03-18T09:28:59;100171.81;;;29.09;25.65
12868;BME280;33517;49.866;8.320;2023-03-18T09:31:51;100164.28;;;29.06;25.23
12868;BME280;33517;49.866;8.320;2023-03-18T09:34:43;100163.28;;;29.90;26.84
12868;BME280;33517;49.866;8.320;2023-03-18T09:37:37;100164.06;;;32.46;23.85
12868;BME280;33517;49.866;8.320;2023-03-18T09:40:31;100155.25;;;33.31;23.88
12868;BME280;33517;49.866;8.320;2023-03-18T09:43:35;100159.72;;;33.70;23.36
12868;BME280;33517;49.866;8.320;2023-03-18T09:46:36;100159.28;;;33.51;24.47
12868;BME280;33517;49.866;8.320;2023-03-18T09:49:47;100148.25;;;32.65;24.66
12868;BME280;33517;49.866;8.320;2023-03-18T09:52:46;100153.66;;;30.79;26.95
12868;BME280;33517;49.866;8.320;2023-03-18T09:55:43;100153.25;;;31.13;26.51
12868;BME280;33517;49.866;8.320;2023-03-18T09:58:46;100164.00;;;32.77;24.04
12868;BME280;33517;49.866;8.320;2023-03-18T10:01:39;100163.91;;;33.41;23.94
12868;BME280;33517;49.866;8.320;2023-03-18T10:04:38;100172.59;;;32.22;24.05
12868;BME280;33517;49.866;8.320;2023-03-18T10:07:37;100160.81;;;32.92;24.09
12868;BME280;33517;49.866;8.320;2023-03-18T10:10:34;100159.25;;;33.33;23.98
12868;BME280;33517;49.866;8.320;2023-03-18T10:13:32;100162.94;;;33.63;24.53
12868;BME280;33517;49.866;8.320;2023-03-18T10:16:29;100160.78;;;32.75;24.35
12868;BME280;33517;49.866;8.320;2023-03-18T10:19:24;100158.13;;;29.75;25.73
12868;BME280;33517;49.866;8.320;2023-03-18T10:22:32;100150.50;;;30.37;26.25
12868;BME280;33517;49.866;8.320;2023-03-18T10:29:34;100154.16;;;30.81;24.68
12868;BME280;33517;49.866;8.320;2023-03-18T10:32:35;100153.06;;;30.15;26.06
12868;BME280;33517;49.866;8.320;2023-03-18T10:35:36;100148.31;;;29.93;25.18
12868;BME280;33517;49.866;8.320;2023-03-18T10:38:33;100147.97;;;30.95;25.89
12868;BME280;33517;49.866;8.320;2023-03-18T10:41:29;100154.09;;;31.22;24.16
12868;BME280;33517;49.866;8.320;2023-03-18T10:44:26;100148.13;;;32.87;24.39
12868;BME280;33517;49.866;8.320;2023-03-18T10:47:21;100147.41;;;33.55;23.29
12868;BME280;33517;49.866;8.320;2023-03-18T10:50:21;100151.25;;;34.84;23.64
12868;BME280;33517;49.866;8.320;2023-03-18T10:53:18;100158.53;;;34.51;21.79
12868;BME280;33517;49.866;8.320;2023-03-18T10:56:12;100149.69;;;34.75;22.29
12868;BME280;33517;49.866;8.320;2023-03-18T10:59:10;100154.59;;;34.90;21.32
12868;BME280;33517;49.866;8.320;2023-03-18T11:02:13;100145.09;;;33.40;23.54
12868;BME280;33517;49.866;8.320;2023-03-18T11:05:18;100143.25;;;32.19;23.64
12868;BME280;33517;49.866;8.320;2023-03-18T11:08:29;100139.19;;;28.11;25.49
12868;BME280;33517;49.866;8.320;2023-03-18T11:11:27;100144.38;;;25.37;29.17
12868;BME280;33517;49.866;8.320;2023-03-18T11:14:27;100137.91;;;25.18;29.96
12868;BME280;33517;49.866;8.320;2023-03-18T11:17:25;100143.19;;;23.90;31.79
12868;BME280;33517;49.866;8.320;2023-03-18T11:20:21;100143.03;;;23.38;32.48
12868;BME280;33517;49.866;8.320;2023-03-18T11:23:16;100127.44;;;23.66;31.95
12868;BME280;33517;49.866;8.320;2023-03-18T11:26:18;100131.25;;;24.07;31.83
12868;BME280;33517;49.866;8.320;2023-03-18T11:29:14;100130.56;;;23.00;33.33
12868;BME280;33517;49.866;8.320;2023-03-18T11:32:23;100131.78;;;23.72;32.56
12868;BME280;33517;49.866;8.320;2023-03-18T11:35:18;100135.88;;;23.48;32.62
12868;BME280;33517;49.866;8.320;2023-03-18T11:38:15;100128.84;;;24.67;32.01
12868;BME280;33517;49.866;8.320;2023-03-18T11:41:13;100127.94;;;25.84;31.35
12868;BME280;33517;49.866;8.320;2023-03-18T11:44:15;100128.84;;;27.17;30.53
12868;BME280;33517;49.866;8.320;2023-03-18T11:47:11;100111.91;;;28.92;28.84
12868;BME280;33517;49.866;8.320;2023-03-18T11:50:18;100122.81;;;28.21;29.29
12868;BME280;33517;49.866;8.320;2023-03-18T11:53:16;100107.56;;;28.31;29.19
12868;BME280;33517;49.866;8.320;2023-03-18T11:56:16;100105.47;;;29.07;28.70
12868;BME280;33517;49.866;8.320;2023-03-18T11:59:26;100104.16;;;28.44;28.27
12868;BME280;33517;49.866;8.320;2023-03-18T12:02:29;100106.72;;;27.10;29.63
12868;BME280;33517;49.866;8.320;2023-03-18T12:05:37;100110.94;;;27.60;28.11
12868;BME280;33517;49.866;8.320;2023-03-18T12:08:41;100111.75;;;27.22;29.14
12868;BME280;33517;49.866;8.320;2023-03-18T12:11:49;100106.28;;;27.37;28.76
12868;BME280;33517;49.866;8.320;2023-03-18T12:14:45;100095.38;;;27.13;29.08
12868;BME280;33517;49.866;8.320;2023-03-18T12:17:47;100096.97;;;27.14;29.16
12868;BME280;33517;49.866;8.320;2023-03-18T12:20:51;100080.78;;;27.77;29.10
12868;BME280;33517;49.866;8.320;2023-03-18T12:23:52;100077.16;;;28.15;28.05
12868;BME280;33517;49.866;8.320;2023-03-18T12:26:50;100092.81;;;27.32;28.92
12868;BME280;33517;49.866;8.320;2023-03-18T12:29:56;100091.00;;;26.69;29.50
12868;BME280;33517;49.866;8.320;2023-03-18T12:32:59;100082.56;;;26.90;29.21
12868;BME280;33517;49.866;8.320;2023-03-18T12:36:03;100088.72;;;26.42;29.95
12868;BME280;33517;49.866;8.320;2023-03-18T12:39:40;100090.63;;;27.34;29.37
12868;BME280;33517;49.866;8.320;2023-03-18T12:42:50;100080.69;;;28.58;28.02
12868;BME280;33517;49.866;8.320;2023-03-18T12:45:49;100084.47;;;28.80;28.09
12868;BME280;33517;49.866;8.320;2023-03-18T12:48:49;100076.25;;;29.04;28.56
12868;BME280;33517;49.866;8.320;2023-03-18T12:51:48;100077.56;;;29.25;28.72
12868;BME280;33517;49.866;8.320;2023-03-18T12:54:45;100071.66;;;29.69;28.47
12868;BME280;33517;49.866;8.320;2023-03-18T12:57:41;100070.53;;;27.74;28.43
12868;BME280;33517;49.866;8.320;2023-03-18T13:00:40;100070.88;;;26.46;29.49
12868;BME280;33517;49.866;8.320;2023-03-18T13:03:35;100075.66;;;24.90;30.88
12868;BME280;33517;49.866;8.320;2023-03-18T13:06:33;100076.06;;;24.51;31.71
12868;BME280;33517;49.866;8.320;2023-03-18T13:09:33;100064.75;;;24.49;31.71
12868;BME280;33517;49.866;8.320;2023-03-18T13:12:30;100073.91;;;23.60;32.67
12868;BME280;33517;49.866;8.320;2023-03-18T13:15:29;100066.25;;;23.42;33.03
12868;BME280;33517;49.866;8.320;2023-03-18T13:18:25;100068.88;;;23.05;33.07
12868;BME280;33517;49.866;8.320;2023-03-18T13:21:22;100066.47;;;22.77;33.96
12868;BME280;33517;49.866;8.320;2023-03-18T13:24:29;100061.59;;;22.52;34.45
12868;BME280;33517;49.866;8.320;2023-03-18T13:27:54;100054.91;;;22.55;34.36
12868;BME280;33517;49.866;8.320;2023-03-18T13:31:01;100058.69;;;23.07;33.66
12868;BME280;33517;49.866;8.320;2023-03-18T13:34:31;100053.47;;;22.69;34.18
12868;BME280;33517;49.866;8.320;2023-03-18T13:37:49;100053.19;;;22.65;34.37
12868;BME280;33517;49.866;8.320;2023-03-18T13:41:17;100046.19;;;22.91;34.05
12868;BME280;33517;49.866;8.320;2023-03-18T13:44:20;100044.91;;;22.72;34.91
12868;BME280;33517;49.866;8.320;2023-03-18T13:47:16;100055.81;;;22.39;35.10
12868;BME280;33517;49.866;8.320;2023-03-18T13:50:26;100057.66;;;21.95;35.89
12868;BME280;33517;49.866;8.320;2023-03-18T13:53:24;100049.88;;;21.77;35.88
12868;BME280;33517;49.866;8.320;2023-03-18T13:56:32;100050.94;;;21.09;36.90
12868;BME280;33517;49.866;8.320;2023-03-18T13:59:44;100040.50;;;21.08;37.22
12868;BME280;33517;49.866;8.320;2023-03-18T14:02:43;100042.44;;;21.46;37.13
12868;BME280;33517;49.866;8.320;2023-03-18T14:05:38;100045.50;;;22.09;36.34
12868;BME280;33517;49.866;8.320;2023-03-18T14:08:48;100043.13;;;23.36;34.75
12868;BME280;33517;49.866;8.320;2023-03-18T14:11:45;100034.25;;;24.24;32.65
12868;BME280;33517;49.866;8.320;2023-03-18T14:15:00;100040.19;;;24.31;33.40
12868;BME280;33517;49.866;8.320;2023-03-18T14:17:55;100037.41;;;24.93;31.72
12868;BME280;33517;49.866;8.320;2023-03-18T14:20:51;100032.78;;;24.73;32.93
12868;BME280;33517;49.866;8.320;2023-03-18T14:23:44;100025.75;;;23.90;33.22
12868;BME280;33517;49.866;8.320;2023-03-18T14:26:36;100020.72;;;24.86;32.89
12868;BME280;33517;49.866;8.320;2023-03-18T14:29:37;100019.56;;;23.95;33.95
12868;BME280;33517;49.866;8.320;2023-03-18T14:32:35;100027.47;;;22.96;34.37
12868;BME280;33517;49.866;8.320;2023-03-18T14:35:32;100013.56;;;23.36;34.65
12868;BME280;33517;49.866;8.320;2023-03-18T14:38:26;100015.28;;;23.99;34.10
12868;BME280;33517;49.866;8.320;2023-03-18T14:41:25;100020.38;;;23.48;34.60
12868;BME280;33517;49.866;8.320;2023-03-18T14:44:23;100014.69;;;22.81;34.69
12868;BME280;33517;49.866;8.320;2023-03-18T14:47:22;100014.66;;;22.28;35.14
12868;BME280;33517;49.866;8.320;2023-03-18T14:50:27;100009.63;;;21.55;36.03
12868;BME280;33517;49.866;8.320;2023-03-18T14:53:23;100014.88;;;21.45;36.12
12868;BME280;33517;49.866;8.320;2023-03-18T14:56:20;100005.88;;;21.18;36.48
12868;BME280;33517;49.866;8.320;2023-03-18T14:59:14;100011.06;;;21.08;37.00
12868;BME280;33517;49.866;8.320;2023-03-18T15:02:15;100008.03;;;20.88;37.21
12868;BME280;33517;49.866;8.320;2023-03-18T15:05:16;100009.94;;;20.76;37.69
12868;BME280;33517;49.866;8.320;2023-03-18T15:08:14;100013.50;;;20.65;38.01
12868;BME280;33517;49.866;8.320;2023-03-18T15:11:09;100013.75;;;20.52;38.36
12868;BME280;33517;49.866;8.320;2023-03-18T15:14:02;100015.56;;;20.35;38.68
12868;BME280;33517;49.866;8.320;2023-03-18T15:16:54;100012.38;;;20.21;39.10
12868;BME280;33517;49.866;8.320;2023-03-18T15:19:47;100010.84;;;20.13;39.08
12868;BME280;33517;49.866;8.320;2023-03-18T15:22:40;100011.44;;;20.15;39.11
12868;BME280;33517;49.866;8.320;2023-03-18T15:25:33;100004.47;;;20.26;39.59